createdAt,value
2022-10-03T00:00:16.503Z,10.81
2022-10-03T00:01:50.879Z,10.82
2022-10-03T00:03:12.046Z,10.82
2022-10-03T00:04:39.276Z,10.81
2022-10-03T00:05:53.711Z,10.81
2022-10-03T00:07:29.992Z,10.80
2022-10-03T00:08:58.373Z,10.81
2022-10-03T00:10:51.902Z,10.80
2022-10-03T00:12:10.030Z,10.79
2022-10-03T00:13:33.182Z,10.80
2022-10-03T00:15:03.695Z,10.79
2022-10-03T00:16:29.847Z,10.80
2022-10-03T00:17:51.536Z,10.79
2022-10-03T00:19:17.726Z,10.78
2022-10-03T00:20:19.884Z,10.79
2022-10-03T00:21:44.139Z,10.79
2022-10-03T00:23:16.041Z,10.78
2022-10-03T00:25:01.536Z,10.77
2022-10-03T00:26:26.807Z,10.78
2022-10-03T00:27:49.685Z,10.78
2022-10-03T00:28:59.029Z,10.78
2022-10-03T00:30:28.587Z,10.77
2022-10-03T00:31:47.057Z,10.78
2022-10-03T00:33:27.933Z,10.79
2022-10-03T00:34:49.027Z,10.77
2022-10-03T00:36:12.072Z,10.78
2022-10-03T00:37:20.331Z,10.77
2022-10-03T00:38:59.953Z,10.76
2022-10-03T00:40:23.319Z,10.77
2022-10-03T00:42:02.421Z,10.77
2022-10-03T00:43:13.821Z,10.77
2022-10-03T00:44:34.368Z,10.78
2022-10-03T00:46:11.228Z,10.77
2022-10-03T00:47:30.766Z,10.75
2022-10-03T00:49:07.057Z,10.75
2022-10-03T00:50:18.128Z,10.77
2022-10-03T00:51:42.389Z,10.78
2022-10-03T00:53:10.981Z,10.77
2022-10-03T00:54:25.512Z,10.78
2022-10-03T00:55:40.898Z,10.78
2022-10-03T00:57:00.686Z,10.78
2022-10-03T00:58:20.825Z,10.78
2022-10-03T00:59:48.425Z,10.78
2022-10-03T01:00:52.875Z,10.79
2022-10-03T01:01:55.685Z,10.79
2022-10-03T01:02:58.512Z,10.80
2022-10-03T01:04:27.340Z,10.79
2022-10-03T01:05:35.394Z,10.79
2022-10-03T01:07:06.040Z,10.81
2022-10-03T01:08:19.483Z,10.83
2022-10-03T01:09:59.351Z,10.83
2022-10-03T01:11:23.529Z,10.84
2022-10-03T01:12:56.893Z,10.85
2022-10-03T01:14:27.083Z,10.86
2022-10-03T01:15:48.209Z,10.88
2022-10-03T01:17:02.821Z,10.88
2022-10-03T01:18:35.304Z,10.90
2022-10-03T01:20:01.531Z,10.89
2022-10-03T01:21:23.602Z,10.91
2022-10-03T01:22:44.231Z,10.92
2022-10-03T01:24:16.378Z,10.92
2022-10-03T01:25:25.703Z,10.93
2022-10-03T01:26:47.883Z,10.94
2022-10-03T01:28:33.745Z,10.96
2022-10-03T01:30:03.944Z,10.97
2022-10-03T01:31:10.421Z,10.98
2022-10-03T01:32:53.126Z,10.98
2022-10-03T01:34:05.812Z,11.00
2022-10-03T01:35:19.874Z,11.00
2022-10-03T01:36:33.488Z,11.01
2022-10-03T01:37:35.655Z,11.02
2022-10-03T01:39:04.690Z,11.03
2022-10-03T01:40:32.264Z,11.04
2022-10-03T01:41:34.467Z,11.05
2022-10-03T01:42:55.045Z,11.05
2022-10-03T01:44:04.804Z,11.05
2022-10-03T01:45:47.653Z,11.06
2022-10-03T01:47:04.655Z,11.08
2022-10-03T01:48:21.886Z,11.08
2022-10-03T01:49:56.949Z,11.09
2022-10-03T01:51:41.151Z,11.10
2022-10-03T01:53:05.061Z,11.10
2022-10-03T01:54:07.515Z,11.11
2022-10-03T01:55:23.372Z,11.11
2022-10-03T01:56:34.566Z,11.11
2022-10-03T01:58:04.125Z,11.12
2022-10-03T01:59:20.373Z,11.13
2022-10-03T02:00:25.962Z,11.13
2022-10-03T02:01:31.073Z,11.14
2022-10-03T02:03:11.291Z,11.14
2022-10-03T02:04:31.842Z,11.15
2022-10-03T02:06:11.687Z,11.15
2022-10-03T02:07:29.937Z,11.16
2022-10-03T02:08:41.108Z,11.15
2022-10-03T02:10:03.120Z,11.16
2022-10-03T02:11:08.529Z,11.15
2022-10-03T02:12:25.519Z,11.14
2022-10-03T02:13:45.703Z,11.16
2022-10-03T02:15:07.718Z,11.15
2022-10-03T02:16:21.298Z,11.15
2022-10-03T02:17:53.082Z,11.16
2022-10-03T02:19:06.140Z,11.17
2022-10-03T02:20:27.991Z,11.17
2022-10-03T02:21:35.119Z,11.17
2022-10-03T02:22:45.144Z,11.16
2022-10-03T02:23:49.880Z,11.17
2022-10-03T02:25:21.847Z,11.18
2022-10-03T02:26:42.669Z,11.17
2022-10-03T02:28:12.511Z,11.18
2022-10-03T02:29:54.398Z,11.18
2022-10-03T02:31:18.343Z,11.18
2022-10-03T02:32:29.374Z,11.18
2022-10-03T02:33:56.680Z,11.18
2022-10-03T02:35:22.886Z,11.19
2022-10-03T02:36:57.939Z,11.18
2022-10-03T02:38:15.267Z,11.18
2022-10-03T02:39:23.482Z,11.18
2022-10-03T02:40:53.518Z,11.18
2022-10-03T02:42:33.529Z,11.18
2022-10-03T02:43:57.319Z,11.19
2022-10-03T02:45:39.179Z,11.20
2022-10-03T02:46:58.712Z,11.19
2022-10-03T02:48:41.183Z,11.19
2022-10-03T02:50:09.199Z,11.19
2022-10-03T02:51:18.193Z,11.19
2022-10-03T02:52:50.382Z,11.21
2022-10-03T02:54:11.242Z,11.21
2022-10-03T02:55:40.176Z,11.21
2022-10-03T02:57:26.129Z,11.19
2022-10-03T02:59:04.790Z,11.22
2022-10-03T03:00:12.836Z,11.23
2022-10-03T03:01:50.204Z,11.23
2022-10-03T03:03:12.563Z,11.24
2022-10-03T03:04:20.816Z,11.25
2022-10-03T03:05:54.217Z,11.25
2022-10-03T03:07:03.213Z,11.26
2022-10-03T03:08:20.373Z,11.26
2022-10-03T03:10:04.886Z,11.26
2022-10-03T03:11:26.654Z,11.26
2022-10-03T03:12:47.686Z,11.28
2022-10-03T03:13:54.636Z,11.27
2022-10-03T03:15:26.293Z,11.27
2022-10-03T03:16:47.886Z,11.28
2022-10-03T03:18:24.441Z,11.29
2022-10-03T03:19:38.679Z,11.28
2022-10-03T03:21:17.364Z,11.30
2022-10-03T03:22:28.009Z,11.29
2022-10-03T03:23:52.151Z,11.30
2022-10-03T03:25:26.859Z,11.29
2022-10-03T03:26:54.953Z,11.28
2022-10-03T03:28:26.551Z,11.29
2022-10-03T03:30:22.373Z,11.30
2022-10-03T03:31:36.472Z,11.29
2022-10-03T03:32:56.435Z,11.28
2022-10-03T03:34:11.554Z,11.28
2022-10-03T03:35:52.255Z,11.27
2022-10-03T03:37:30.281Z,11.28
2022-10-03T03:38:39.987Z,11.29
2022-10-03T03:40:00.957Z,11.29
2022-10-03T03:41:46.577Z,11.28
2022-10-03T03:42:48.716Z,11.28
2022-10-03T03:44:19.848Z,11.28
2022-10-03T03:45:47.166Z,11.28
2022-10-03T03:47:21.607Z,11.27
2022-10-03T03:48:42.481Z,11.26
2022-10-03T03:50:11.227Z,11.27
2022-10-03T03:51:42.706Z,11.27
2022-10-03T03:53:22.079Z,11.28
2022-10-03T03:54:52.305Z,11.29
2022-10-03T03:56:27.987Z,11.28
2022-10-03T03:57:45.365Z,11.27
2022-10-03T03:58:56.149Z,11.28
2022-10-03T04:00:03.941Z,11.27
2022-10-03T04:01:33.096Z,11.27
2022-10-03T04:03:16.372Z,11.28
2022-10-03T04:04:27.619Z,11.28
2022-10-03T04:06:06.034Z,11.29
2022-10-03T04:07:41.672Z,11.29
2022-10-03T04:09:00.928Z,11.29
2022-10-03T04:10:27.515Z,11.29
2022-10-03T04:11:53.842Z,11.30
2022-10-03T04:13:24.477Z,11.30
2022-10-03T04:14:34.999Z,11.30
2022-10-03T04:15:39.973Z,11.29
2022-10-03T04:17:26.670Z,11.29
2022-10-03T04:18:59.479Z,11.29
2022-10-03T04:20:09.960Z,11.28
2022-10-03T04:21:23.935Z,11.29
2022-10-03T04:23:07.427Z,11.29
2022-10-03T04:24:40.387Z,11.29
2022-10-03T04:26:15.946Z,11.29
2022-10-03T04:27:38.181Z,11.31
2022-10-03T04:28:55.519Z,11.32
2022-10-03T04:30:18.683Z,11.31
2022-10-03T04:31:41.929Z,11.32
2022-10-03T04:33:06.973Z,11.31
2022-10-03T04:34:41.726Z,11.31
2022-10-03T04:36:09.995Z,11.31
2022-10-03T04:37:23.896Z,11.32
2022-10-03T04:38:47.061Z,11.30
2022-10-03T04:40:24.820Z,11.30
2022-10-03T04:41:43.322Z,11.29
2022-10-03T04:43:34.835Z,11.29
2022-10-03T04:44:45.852Z,11.29
2022-10-03T04:46:43.604Z,11.29
2022-10-03T04:47:53.851Z,11.29
2022-10-03T04:49:35.785Z,11.29
2022-10-03T04:50:44.961Z,11.29
2022-10-03T04:51:58.251Z,11.27
2022-10-03T04:53:19.447Z,11.27
2022-10-03T04:54:35.755Z,11.25
2022-10-03T04:55:49.134Z,11.26
2022-10-03T04:57:11.573Z,11.26
2022-10-03T04:58:48.103Z,11.26
2022-10-03T05:00:00.647Z,11.25
2022-10-03T05:01:24.893Z,11.24
2022-10-03T05:02:36.739Z,11.24
2022-10-03T05:03:43.622Z,11.25
2022-10-03T05:04:58.712Z,11.24
2022-10-03T05:06:08.432Z,11.25
2022-10-03T05:07:29.386Z,11.24
2022-10-03T05:08:56.065Z,11.24
2022-10-03T05:10:23.194Z,11.23
2022-10-03T05:11:43.838Z,11.24
2022-10-03T05:13:21.955Z,11.23
2022-10-03T05:14:52.221Z,11.22
2022-10-03T05:16:15.407Z,11.22
2022-10-03T05:17:37.417Z,11.21
2022-10-03T05:19:06.202Z,11.19
2022-10-03T05:20:24.464Z,11.18
2022-10-03T05:21:47.312Z,11.19
2022-10-03T05:23:01.875Z,11.19
2022-10-03T05:24:36.075Z,11.18
2022-10-03T05:26:32.356Z,11.16
2022-10-03T05:28:11.288Z,11.16
2022-10-03T05:29:40.099Z,11.15
2022-10-03T05:30:55.950Z,11.15
2022-10-03T05:32:13.006Z,11.14
2022-10-03T05:33:40.283Z,11.13
2022-10-03T05:35:00.558Z,11.13
2022-10-03T05:36:24.688Z,11.12
2022-10-03T05:37:48.360Z,11.12
2022-10-03T05:39:28.420Z,11.10
2022-10-03T05:40:34.728Z,11.10
2022-10-03T05:41:40.664Z,11.09
2022-10-03T05:42:55.778Z,11.08
2022-10-03T05:44:15.853Z,11.08
2022-10-03T05:45:37.030Z,11.08
2022-10-03T05:46:45.147Z,11.08
2022-10-03T05:47:53.748Z,11.07
2022-10-03T05:48:55.941Z,11.07
2022-10-03T05:50:35.250Z,11.07
2022-10-03T05:51:56.464Z,11.08
2022-10-03T05:53:01.404Z,11.08
2022-10-03T05:54:27.062Z,11.08
2022-10-03T05:55:49.234Z,11.07
2022-10-03T05:57:27.268Z,11.07
2022-10-03T05:59:14.065Z,11.06
2022-10-03T06:00:46.169Z,11.06
2022-10-03T06:01:55.501Z,11.07
2022-10-03T06:03:27.432Z,11.06
2022-10-03T06:04:46.561Z,11.06
2022-10-03T06:06:21.004Z,11.05
2022-10-03T06:07:29.749Z,11.06
2022-10-03T06:09:13.300Z,11.07
2022-10-03T06:10:40.126Z,11.07
2022-10-03T06:11:52.365Z,11.08
2022-10-03T06:12:57.682Z,11.09
2022-10-03T06:14:35.344Z,11.10
2022-10-03T06:15:55.559Z,11.11
2022-10-03T06:17:16.544Z,11.10
2022-10-03T06:18:32.049Z,11.12
2022-10-03T06:19:46.579Z,11.12
2022-10-03T06:21:04.125Z,11.12
2022-10-03T06:22:25.121Z,11.13
2022-10-03T06:23:51.672Z,11.14
2022-10-03T06:25:12.203Z,11.15
2022-10-03T06:26:52.108Z,11.16
2022-10-03T06:28:19.428Z,11.18
2022-10-03T06:29:43.272Z,11.18
2022-10-03T06:31:05.839Z,11.20
2022-10-03T06:32:24.461Z,11.21
2022-10-03T06:34:14.661Z,11.22
2022-10-03T06:35:41.356Z,11.22
2022-10-03T06:37:21.400Z,11.23
2022-10-03T06:39:01.232Z,11.24
2022-10-03T06:40:24.789Z,11.24
2022-10-03T06:41:45.773Z,11.25
2022-10-03T06:43:38.292Z,11.26
2022-10-03T06:44:57.851Z,11.26
2022-10-03T06:46:22.210Z,11.26
2022-10-03T06:47:53.574Z,11.28
2022-10-03T06:49:32.287Z,11.29
2022-10-03T06:50:49.047Z,11.31
2022-10-03T06:51:58.864Z,11.30
2022-10-03T06:53:38.929Z,11.32
2022-10-03T06:54:53.093Z,11.33
2022-10-03T06:56:06.950Z,11.34
2022-10-03T06:58:01.745Z,11.37
2022-10-03T06:59:26.118Z,11.39
2022-10-03T07:00:50.704Z,11.41
2022-10-03T07:02:06.658Z,11.41
2022-10-03T07:03:15.117Z,11.43
2022-10-03T07:04:52.630Z,11.44
2022-10-03T07:06:25.362Z,11.44
2022-10-03T07:08:06.265Z,11.46
2022-10-03T07:09:30.455Z,11.47
2022-10-03T07:10:52.576Z,11.48
2022-10-03T07:12:34.218Z,11.49
2022-10-03T07:13:45.109Z,11.51
2022-10-03T07:15:02.220Z,11.52
2022-10-03T07:16:28.319Z,11.52
2022-10-03T07:17:40.610Z,11.54
2022-10-03T07:19:22.920Z,11.56
2022-10-03T07:21:02.546Z,11.56
2022-10-03T07:22:23.646Z,11.59
2022-10-03T07:24:03.053Z,11.60
2022-10-03T07:25:40.162Z,11.62
2022-10-03T07:27:13.276Z,11.63
2022-10-03T07:28:45.865Z,11.63
2022-10-03T07:29:58.971Z,11.63
2022-10-03T07:31:24.289Z,11.65
2022-10-03T07:32:55.713Z,11.65
2022-10-03T07:34:17.973Z,11.66
2022-10-03T07:35:58.011Z,11.66
2022-10-03T07:37:38.350Z,11.68
2022-10-03T07:38:58.614Z,11.67
2022-10-03T07:40:35.976Z,11.68
2022-10-03T07:42:00.217Z,11.71
2022-10-03T07:43:18.626Z,11.73
2022-10-03T07:44:36.045Z,11.73
2022-10-03T07:45:45.838Z,11.75
2022-10-03T07:47:25.881Z,11.77
2022-10-03T07:48:58.626Z,11.79
2022-10-03T07:50:00.799Z,11.82
2022-10-03T07:51:24.081Z,11.85
2022-10-03T07:52:29.733Z,11.88
2022-10-03T07:54:09.149Z,11.90
2022-10-03T07:55:26.627Z,11.93
2022-10-03T07:56:56.596Z,11.97
2022-10-03T07:58:44.463Z,11.98
2022-10-03T07:59:55.806Z,12.00
2022-10-03T08:01:28.509Z,12.02
2022-10-03T08:03:08.090Z,12.04
2022-10-03T08:04:28.725Z,12.07
2022-10-03T08:05:54.691Z,12.08
2022-10-03T08:07:45.346Z,12.10
2022-10-03T08:08:59.278Z,12.12
2022-10-03T08:10:40.971Z,12.15
2022-10-03T08:11:45.875Z,12.19
2022-10-03T08:13:16.123Z,12.20
2022-10-03T08:14:41.341Z,12.23
2022-10-03T08:16:12.023Z,12.25
2022-10-03T08:17:30.704Z,12.28
2022-10-03T08:18:44.108Z,12.30
2022-10-03T08:19:58.175Z,12.31
2022-10-03T08:21:16.264Z,12.33
2022-10-03T08:22:46.119Z,12.35
2022-10-03T08:24:25.747Z,12.37
2022-10-03T08:25:31.113Z,12.39
2022-10-03T08:26:51.241Z,12.41
2022-10-03T08:28:21.321Z,12.43
2022-10-03T08:30:00.030Z,12.45
2022-10-03T08:31:17.435Z,12.47
2022-10-03T08:32:37.890Z,12.48
2022-10-03T08:33:43.107Z,12.49
2022-10-03T08:35:04.078Z,12.51
2022-10-03T08:36:12.340Z,12.53
2022-10-03T08:37:29.823Z,12.54
2022-10-03T08:38:42.059Z,12.54
2022-10-03T08:39:59.248Z,12.56
2022-10-03T08:41:19.014Z,12.57
2022-10-03T08:43:00.416Z,12.60
2022-10-03T08:44:30.514Z,12.62
2022-10-03T08:45:53.015Z,12.64
2022-10-03T08:47:07.434Z,12.67
2022-10-03T08:48:44.611Z,12.68
2022-10-03T08:50:05.940Z,12.71
2022-10-03T08:51:11.272Z,12.72
2022-10-03T08:52:50.640Z,12.75
2022-10-03T08:54:15.461Z,12.77
2022-10-03T08:55:45.785Z,12.80
2022-10-03T08:57:09.495Z,12.82
2022-10-03T08:58:17.581Z,12.84
2022-10-03T08:59:56.859Z,12.86
2022-10-03T09:01:11.161Z,12.89
2022-10-03T09:02:34.434Z,12.91
2022-10-03T09:04:04.283Z,12.94
2022-10-03T09:05:30.556Z,12.97
2022-10-03T09:06:35.522Z,12.97
2022-10-03T09:08:11.607Z,12.98
2022-10-03T09:09:25.597Z,12.99
2022-10-03T09:10:46.540Z,12.99
2022-10-03T09:11:48.685Z,13.02
2022-10-03T09:13:21.876Z,13.01
2022-10-03T09:14:56.468Z,13.03
2022-10-03T09:16:36.340Z,13.04
2022-10-03T09:17:57.057Z,13.07
2022-10-03T09:19:17.126Z,13.08
2022-10-03T09:20:53.437Z,13.10
2022-10-03T09:22:40.054Z,13.12
2022-10-03T09:24:01.068Z,13.14
2022-10-03T09:25:11.759Z,13.16
2022-10-03T09:26:47.000Z,13.19
2022-10-03T09:28:04.472Z,13.22
2022-10-03T09:29:21.662Z,13.27
2022-10-03T09:30:35.806Z,13.31
2022-10-03T09:32:14.675Z,13.36
2022-10-03T09:33:55.430Z,13.38
2022-10-03T09:35:22.714Z,13.41
2022-10-03T09:36:33.918Z,13.46
2022-10-03T09:37:44.037Z,13.49
2022-10-03T09:39:00.645Z,13.55
2022-10-03T09:40:17.851Z,13.61
2022-10-03T09:41:38.895Z,13.67
2022-10-03T09:43:07.576Z,13.75
2022-10-03T09:44:25.071Z,13.82
2022-10-03T09:45:48.147Z,13.86
2022-10-03T09:47:35.355Z,13.94
2022-10-03T09:49:04.945Z,14.01
2022-10-03T09:50:31.619Z,14.08
2022-10-03T09:51:54.039Z,14.13
2022-10-03T09:53:36.347Z,14.19
2022-10-03T09:55:16.051Z,14.26
2022-10-03T09:56:33.121Z,14.31
2022-10-03T09:58:11.264Z,14.35
2022-10-03T09:59:40.404Z,14.40
2022-10-03T10:01:03.111Z,14.43
2022-10-03T10:02:45.817Z,14.45
2022-10-03T10:04:00.654Z,14.49
2022-10-03T10:05:21.489Z,14.50
2022-10-03T10:06:39.336Z,14.49
2022-10-03T10:08:04.679Z,14.49
2022-10-03T10:09:25.512Z,14.51
2022-10-03T10:10:53.717Z,14.52
2022-10-03T10:12:10.916Z,14.52
2022-10-03T10:13:19.338Z,14.51
2022-10-03T10:14:33.540Z,14.51
2022-10-03T10:15:57.129Z,14.49
2022-10-03T10:17:30.673Z,14.49
2022-10-03T10:18:49.929Z,14.47
2022-10-03T10:20:39.416Z,14.45
2022-10-03T10:21:50.026Z,14.48
2022-10-03T10:23:27.698Z,14.46
2022-10-03T10:25:14.374Z,14.44
2022-10-03T10:26:51.979Z,14.41
2022-10-03T10:28:00.331Z,14.41
2022-10-03T10:29:27.827Z,14.40
2022-10-03T10:31:00.188Z,14.41
2022-10-03T10:32:21.526Z,14.41
2022-10-03T10:34:22.020Z,14.42
2022-10-03T10:35:28.871Z,14.41
2022-10-03T10:36:45.987Z,14.42
2022-10-03T10:37:55.148Z,14.43
2022-10-03T10:39:35.047Z,14.43
2022-10-03T10:40:47.208Z,14.43
2022-10-03T10:42:17.894Z,14.44
2022-10-03T10:43:57.542Z,14.48
2022-10-03T10:45:41.455Z,14.52
2022-10-03T10:47:11.503Z,14.56
2022-10-03T10:48:25.994Z,14.61
2022-10-03T10:49:52.491Z,14.64
2022-10-03T10:51:25.653Z,14.70
2022-10-03T10:52:49.434Z,14.73
2022-10-03T10:54:23.390Z,14.77
2022-10-03T10:55:56.386Z,14.79
2022-10-03T10:57:12.166Z,14.82
2022-10-03T10:58:36.296Z,14.81
2022-10-03T11:00:02.931Z,14.86
2022-10-03T11:01:35.715Z,14.89
2022-10-03T11:02:59.859Z,14.91
2022-10-03T11:04:24.017Z,14.95
2022-10-03T11:06:00.937Z,14.97
2022-10-03T11:07:15.729Z,14.98
2022-10-03T11:08:50.036Z,14.98
2022-10-03T11:10:01.113Z,15.01
2022-10-03T11:11:24.363Z,15.02
2022-10-03T11:12:58.863Z,15.03
2022-10-03T11:14:28.365Z,15.04
2022-10-03T11:15:33.168Z,15.01
2022-10-03T11:17:02.993Z,15.01
2022-10-03T11:18:05.152Z,14.97
2022-10-03T11:19:47.853Z,14.95
2022-10-03T11:21:10.693Z,14.94
2022-10-03T11:22:49.425Z,14.94
2022-10-03T11:24:27.781Z,14.90
2022-10-03T11:26:04.014Z,14.90
2022-10-03T11:27:12.305Z,14.92
2022-10-03T11:28:36.270Z,14.89
2022-10-03T11:30:06.667Z,14.88
2022-10-03T11:31:20.125Z,14.87
2022-10-03T11:32:22.561Z,14.88
2022-10-03T11:33:55.052Z,14.85
2022-10-03T11:35:17.916Z,14.84
2022-10-03T11:36:32.284Z,14.84
2022-10-03T11:37:40.901Z,14.82
2022-10-03T11:39:03.875Z,14.84
2022-10-03T11:40:28.511Z,14.82
2022-10-03T11:42:08.345Z,14.81
2022-10-03T11:43:52.235Z,14.82
2022-10-03T11:45:19.910Z,14.82
2022-10-03T11:46:59.689Z,14.81
2022-10-03T11:48:32.225Z,14.81
2022-10-03T11:50:03.215Z,14.80
2022-10-03T11:51:23.824Z,14.80
2022-10-03T11:52:43.529Z,14.82
2022-10-03T11:54:26.257Z,14.84
2022-10-03T11:56:00.265Z,14.87
2022-10-03T11:57:13.829Z,14.87
2022-10-03T11:58:35.614Z,14.87
2022-10-03T12:00:05.292Z,14.88
2022-10-03T12:01:22.494Z,14.91
2022-10-03T12:02:41.959Z,14.91
2022-10-03T12:03:53.524Z,14.94
2022-10-03T12:05:20.734Z,14.94
2022-10-03T12:07:15.894Z,14.93
2022-10-03T12:08:54.413Z,14.94
2022-10-03T12:10:48.277Z,14.97
2022-10-03T12:11:54.207Z,14.97
2022-10-03T12:12:58.033Z,14.98
2022-10-03T12:14:11.613Z,14.99
2022-10-03T12:15:22.813Z,14.98
2022-10-03T12:16:32.092Z,15.01
2022-10-03T12:17:46.366Z,15.00
2022-10-03T12:18:48.516Z,15.02
2022-10-03T12:20:02.720Z,15.03
2022-10-03T12:21:21.599Z,15.05
2022-10-03T12:22:50.273Z,15.07
2022-10-03T12:24:14.064Z,15.09
2022-10-03T12:25:25.190Z,15.10
2022-10-03T12:26:32.070Z,15.12
2022-10-03T12:27:47.470Z,15.13
2022-10-03T12:28:55.490Z,15.12
2022-10-03T12:30:02.387Z,15.14
2022-10-03T12:31:19.269Z,15.16
2022-10-03T12:32:36.607Z,15.16
2022-10-03T12:33:57.022Z,15.17
2022-10-03T12:35:15.423Z,15.18
2022-10-03T12:36:24.124Z,15.18
2022-10-03T12:37:57.474Z,15.19
2022-10-03T12:39:14.819Z,15.21
2022-10-03T12:40:32.804Z,15.21
2022-10-03T12:42:07.111Z,15.22
2022-10-03T12:43:37.582Z,15.22
2022-10-03T12:45:02.521Z,15.23
2022-10-03T12:46:16.266Z,15.23
2022-10-03T12:47:54.793Z,15.23
2022-10-03T12:49:25.913Z,15.21
2022-10-03T12:50:48.543Z,15.21
2022-10-03T12:52:00.188Z,15.22
2022-10-03T12:53:15.384Z,15.20
2022-10-03T12:54:45.473Z,15.17
2022-10-03T12:56:15.741Z,15.15
2022-10-03T12:57:39.886Z,15.15
2022-10-03T12:59:03.417Z,15.13
2022-10-03T13:00:22.587Z,15.11
2022-10-03T13:02:03.202Z,15.10
2022-10-03T13:03:17.541Z,15.09
2022-10-03T13:04:47.749Z,15.07
2022-10-03T13:06:51.091Z,15.05
2022-10-03T13:07:58.333Z,15.04
2022-10-03T13:09:25.303Z,15.02
2022-10-03T13:10:45.808Z,15.01
2022-10-03T13:12:24.223Z,14.98
2022-10-03T13:14:02.132Z,14.97
2022-10-03T13:15:44.448Z,14.94
2022-10-03T13:17:14.802Z,14.93
2022-10-03T13:18:23.051Z,14.93
2022-10-03T13:19:32.069Z,14.92
2022-10-03T13:20:47.169Z,14.90
2022-10-03T13:22:09.722Z,14.90
2022-10-03T13:23:11.959Z,14.90
2022-10-03T13:24:50.837Z,14.89
2022-10-03T13:25:55.990Z,14.90
2022-10-03T13:27:36.116Z,14.92
2022-10-03T13:29:03.077Z,14.92
2022-10-03T13:30:15.285Z,14.95
2022-10-03T13:31:27.329Z,14.95
2022-10-03T13:32:43.020Z,14.96
2022-10-03T13:33:51.060Z,14.97
2022-10-03T13:35:24.567Z,14.95
2022-10-03T13:36:30.489Z,14.98
2022-10-03T13:37:58.739Z,14.99
2022-10-03T13:39:13.333Z,14.98
2022-10-03T13:40:19.361Z,15.01
2022-10-03T13:41:27.538Z,15.02
2022-10-03T13:42:39.942Z,15.04
2022-10-03T13:43:51.206Z,15.03
2022-10-03T13:44:59.519Z,15.05
2022-10-03T13:46:06.404Z,15.06
2022-10-03T13:47:42.003Z,15.06
2022-10-03T13:48:55.777Z,15.08
2022-10-03T13:50:02.651Z,15.08
2022-10-03T13:51:22.111Z,15.10
2022-10-03T13:52:30.292Z,15.10
2022-10-03T13:54:19.989Z,15.10
2022-10-03T13:55:34.047Z,15.10
2022-10-03T13:57:04.250Z,15.10
2022-10-03T13:58:45.592Z,15.09
2022-10-03T14:00:08.887Z,15.10
2022-10-03T14:01:35.821Z,15.09
2022-10-03T14:03:08.782Z,15.07
2022-10-03T14:04:41.587Z,15.05
2022-10-03T14:06:24.221Z,15.03
2022-10-03T14:07:49.767Z,15.01
2022-10-03T14:09:16.444Z,15.01
2022-10-03T14:10:26.696Z,14.99
2022-10-03T14:11:47.278Z,14.97
2022-10-03T14:13:26.125Z,14.97
2022-10-03T14:15:07.742Z,14.95
2022-10-03T14:16:23.436Z,14.95
2022-10-03T14:17:39.790Z,14.94
2022-10-03T14:19:12.716Z,14.93
2022-10-03T14:20:25.029Z,14.91
2022-10-03T14:22:06.208Z,14.93
2022-10-03T14:23:20.450Z,14.92
2022-10-03T14:24:22.680Z,14.93
2022-10-03T14:25:32.751Z,14.93
2022-10-03T14:26:57.762Z,14.94
2022-10-03T14:28:19.070Z,14.93
2022-10-03T14:29:54.767Z,14.94
2022-10-03T14:31:26.846Z,14.94
2022-10-03T14:32:57.148Z,14.96
2022-10-03T14:34:08.384Z,14.95
2022-10-03T14:35:13.664Z,14.95
2022-10-03T14:36:25.318Z,14.95
2022-10-03T14:37:43.029Z,14.94
2022-10-03T14:39:05.223Z,14.95
2022-10-03T14:40:35.685Z,14.95
2022-10-03T14:41:56.059Z,14.96
2022-10-03T14:43:26.180Z,14.97
2022-10-03T14:44:40.420Z,14.97
2022-10-03T14:46:04.914Z,14.99
2022-10-03T14:47:16.439Z,14.98
2022-10-03T14:48:50.030Z,14.98
2022-10-03T14:49:59.970Z,14.99
2022-10-03T14:51:41.788Z,15.01
2022-10-03T14:53:02.470Z,15.02
2022-10-03T14:54:21.798Z,15.03
2022-10-03T14:55:29.897Z,15.03
2022-10-03T14:56:43.879Z,15.03
2022-10-03T14:58:10.421Z,15.04
2022-10-03T14:59:23.344Z,15.05
2022-10-03T15:00:35.781Z,15.04
2022-10-03T15:01:49.809Z,15.04
2022-10-03T15:02:52.159Z,15.05
2022-10-03T15:04:01.726Z,15.06
2022-10-03T15:05:17.839Z,15.06
2022-10-03T15:06:33.252Z,15.06
2022-10-03T15:07:43.287Z,15.06
2022-10-03T15:08:58.016Z,15.07
2022-10-03T15:10:02.807Z,15.06
2022-10-03T15:11:07.371Z,15.05
2022-10-03T15:12:24.073Z,15.02
2022-10-03T15:13:33.722Z,15.03
2022-10-03T15:14:41.060Z,15.03
2022-10-03T15:15:46.892Z,15.02
2022-10-03T15:16:57.828Z,15.02
2022-10-03T15:18:04.682Z,15.01
2022-10-03T15:19:26.187Z,15.01
2022-10-03T15:20:35.056Z,15.01
2022-10-03T15:21:45.379Z,14.99
2022-10-03T15:22:53.758Z,14.99
2022-10-03T15:24:07.830Z,14.98
2022-10-03T15:25:18.195Z,14.97
2022-10-03T15:26:24.797Z,14.97
2022-10-03T15:27:29.060Z,14.96
2022-10-03T15:28:39.187Z,14.96
2022-10-03T15:29:41.996Z,14.94
2022-10-03T15:30:46.362Z,14.95
2022-10-03T15:31:49.498Z,14.95
2022-10-03T15:32:56.843Z,14.94
2022-10-03T15:34:01.883Z,14.94
2022-10-03T15:35:06.179Z,14.94
2022-10-03T15:36:30.873Z,14.94
2022-10-03T15:37:41.852Z,14.94
2022-10-03T15:38:54.808Z,14.91
2022-10-03T15:40:03.371Z,14.93
2022-10-03T15:41:11.597Z,14.91
2022-10-03T15:42:23.443Z,14.92
2022-10-03T15:43:34.573Z,14.91
2022-10-03T15:44:39.991Z,14.90
2022-10-03T15:45:43.770Z,14.89
2022-10-03T15:46:53.206Z,14.88
2022-10-03T15:48:01.503Z,14.89
2022-10-03T15:49:09.709Z,14.86
2022-10-03T15:50:24.213Z,14.86
2022-10-03T15:51:30.336Z,14.85
2022-10-03T15:52:41.998Z,14.82
2022-10-03T15:53:49.629Z,14.84
2022-10-03T15:55:11.170Z,14.82
2022-10-03T15:56:19.987Z,14.82
2022-10-03T15:57:29.307Z,14.80
2022-10-03T15:58:37.755Z,14.79
2022-10-03T15:59:45.409Z,14.78
2022-10-03T16:01:00.838Z,14.76
2022-10-03T16:02:19.116Z,14.76
2022-10-03T16:03:31.531Z,14.76
2022-10-03T16:04:35.356Z,14.73
2022-10-03T16:05:51.562Z,14.73
2022-10-03T16:07:09.419Z,14.72
2022-10-03T16:08:20.616Z,14.71
2022-10-03T16:09:38.390Z,14.69
2022-10-03T16:10:49.993Z,14.66
2022-10-03T16:12:39.955Z,14.64
2022-10-03T16:13:49.159Z,14.64
2022-10-03T16:15:02.770Z,14.62
2022-10-03T16:16:10.812Z,14.62
2022-10-03T16:17:29.162Z,14.60
2022-10-03T16:18:57.962Z,14.59
2022-10-03T16:20:10.074Z,14.55
2022-10-03T16:21:48.338Z,14.52
2022-10-03T16:22:57.387Z,14.50
2022-10-03T16:24:03.069Z,14.49
2022-10-03T16:25:26.948Z,14.47
2022-10-03T16:26:34.780Z,14.45
2022-10-03T16:27:41.635Z,14.44
2022-10-03T16:28:50.755Z,14.42
2022-10-03T16:30:15.003Z,14.41
2022-10-03T16:31:28.798Z,14.40
2022-10-03T16:32:33.423Z,14.41
2022-10-03T16:33:39.288Z,14.39
2022-10-03T16:34:44.928Z,14.37
2022-10-03T16:36:17.642Z,14.34
2022-10-03T16:37:27.222Z,14.35
2022-10-03T16:38:35.889Z,14.33
2022-10-03T16:39:47.379Z,14.33
2022-10-03T16:40:57.037Z,14.31
2022-10-03T16:42:00.801Z,14.30
2022-10-03T16:43:09.772Z,14.30
2022-10-03T16:44:47.483Z,14.29
2022-10-03T16:45:49.967Z,14.27
2022-10-03T16:46:55.458Z,14.27
2022-10-03T16:48:19.582Z,14.28
2022-10-03T16:50:02.081Z,14.25
2022-10-03T16:51:06.651Z,14.25
2022-10-03T16:52:21.011Z,14.24
2022-10-03T16:53:24.440Z,14.22
2022-10-03T16:54:28.572Z,14.20
2022-10-03T16:55:36.196Z,14.19
2022-10-03T16:56:47.380Z,14.18
2022-10-03T16:57:55.834Z,14.18
2022-10-03T16:59:11.211Z,14.15
2022-10-03T17:00:17.662Z,14.15
2022-10-03T17:01:45.618Z,14.15
2022-10-03T17:02:49.485Z,14.14
2022-10-03T17:04:10.146Z,14.13
2022-10-03T17:05:15.316Z,14.13
2022-10-03T17:06:28.047Z,14.12
2022-10-03T17:07:38.217Z,14.12
2022-10-03T17:08:46.456Z,14.11
2022-10-03T17:09:54.209Z,14.11
2022-10-03T17:11:00.425Z,14.11
2022-10-03T17:12:07.085Z,14.11
2022-10-03T17:13:16.608Z,14.10
2022-10-03T17:14:20.719Z,14.11
2022-10-03T17:15:28.022Z,14.09
2022-10-03T17:16:50.928Z,14.08
2022-10-03T17:18:16.992Z,14.08
2022-10-03T17:19:30.993Z,14.07
2022-10-03T17:20:56.584Z,14.07
2022-10-03T17:22:07.363Z,14.07
2022-10-03T17:23:20.471Z,14.06
2022-10-03T17:24:41.045Z,14.06
2022-10-03T17:26:10.808Z,14.05
2022-10-03T17:27:31.807Z,14.05
2022-10-03T17:28:37.723Z,14.04
2022-10-03T17:29:49.604Z,14.03
2022-10-03T17:30:55.938Z,14.03
2022-10-03T17:32:15.066Z,14.03
2022-10-03T17:33:31.786Z,14.02
2022-10-03T17:34:40.703Z,14.00
2022-10-03T17:36:03.072Z,14.01